Big Bear Station Historical Data
Daily Summary for February 13, 2019 Units:  Metric    English   Both
Next Day »
Daily Weekly Monthly Yearly Custom
  High: Low: Average:
Temperature: 6.7 °C 0.2 °C 3.2 °C
Dew Point: 4.1 °C -18.7 °C -7.1 °C
Humidity: 99% 17% 58%
Wind Speed: 12.6km/h 0km/h 3.5km/h
Wind Gust: -1607.7km/h - -
Wind- - SW
Pressure: 793.7 hPa 790.3 hPa -
Precipitation: 32 mm    
Historical Graphs
 
 
Tabular Data for February 13, 2019
Time Temperature Dew Point Pressure Wind Wind Speed Wind Gust Humidity Rainfall Rate (Hourly)
00:02 2.1 °C -18 °C 793.3 hPa South 5.1 km/h -1607.7 km/h 21% 0 mm
00:17 1.9 °C -17.6 °C 793.7 hPa NE 12.6 km/h -1607.7 km/h 22% 0 mm
00:32 1.8 °C -17.2 °C 793.3 hPa WNW 4.3 km/h -1607.7 km/h 23% 0 mm
00:47 1.7 °C -16.7 °C 793.7 hPa Calm   -1607.7 km/h 24% 0 mm
01:02 1.7 °C -17.2 °C 793.3 hPa East 3.5 km/h -1607.7 km/h 23% 0 mm
01:18 1.8 °C -17.7 °C 793 hPa SSW 10.9 km/h -1607.7 km/h 22% 0 mm
01:33 1.9 °C -16.1 °C 793 hPa West 4.3 km/h -1607.7 km/h 25% 0 mm
01:49 2.1 °C -16.9 °C 793 hPa NW 6 km/h -1607.7 km/h 23% 0 mm
02:04 2 °C -17.6 °C 792.7 hPa WNW 2.7 km/h -1607.7 km/h 22% 0 mm
02:19 2.1 °C -17.4 °C 792.3 hPa NNE 5.1 km/h -1607.7 km/h 22% 0 mm
02:35 2.2 °C -17.3 °C 792.3 hPa SSW 3.5 km/h -1607.7 km/h 22% 0 mm
02:50 2.6 °C -17 °C 792 hPa SW 7.6 km/h -1607.7 km/h 22% 0 mm
03:05 2.7 °C -16.9 °C 791.3 hPa NE 7.6 km/h -1607.7 km/h 22% 0 mm
03:20 2.9 °C -17.3 °C 791.3 hPa ESE 8.5 km/h -1607.7 km/h 21% 0 mm
03:35 2.9 °C -16.8 °C 791.3 hPa South 4.3 km/h -1607.7 km/h 22% 0 mm
03:51 2.9 °C -16.8 °C 791.3 hPa SSW 5.1 km/h -1607.7 km/h 22% 0 mm
04:06 3.2 °C -17.6 °C 791.3 hPa WSW 7.6 km/h -1607.7 km/h 20% 0 mm
04:21 3 °C -17.8 °C 791.3 hPa SSW 4.3 km/h -1607.7 km/h 20% 0 mm
04:36 2.9 °C -17.9 °C 791.3 hPa South 4.3 km/h -1607.7 km/h 20% 0 mm
04:52 2.8 °C -17.4 °C 791 hPa West 6.8 km/h -1607.7 km/h 21% 0 mm
05:07 2.9 °C -17.9 °C 791.3 hPa SE 10.1 km/h -1607.7 km/h 20% 0 mm
05:22 2.6 °C -17 °C 791.6 hPa Calm   -1607.7 km/h 22% 0 mm
05:37 2.4 °C -17.2 °C 791 hPa South 5.1 km/h -1607.7 km/h 22% 0 mm
05:53 2.1 °C -16.4 °C 791 hPa SW 6 km/h -1607.7 km/h 24% 0 mm
06:08 1.9 °C -16.6 °C 791 hPa WSW 4.3 km/h -1607.7 km/h 24% 0 mm
06:23 1.6 °C -15.9 °C 791 hPa South 5.1 km/h -1607.7 km/h 26% 0 mm
06:39 1.5 °C -15.9 °C 791 hPa SW 6.8 km/h -1607.7 km/h 26% 0 mm
06:54 1.6 °C -16.8 °C 791 hPa SW 6 km/h -1607.7 km/h 24% 0 mm
07:09 1.8 °C -16.7 °C 790.6 hPa North 3.5 km/h -1607.7 km/h 24% 0 mm
07:24 2.2 °C -17.9 °C 791 hPa South 8.5 km/h -1607.7 km/h 21% 0 mm
07:39 2.7 °C -18.1 °C 791.3 hPa ESE 5.1 km/h -1607.7 km/h 20% 0 mm
07:55 2.5 °C -18.2 °C 791.6 hPa West 6.8 km/h -1607.7 km/h 20% 0 mm
08:10 2.6 °C -15.5 °C 791.3 hPa WSW 3.5 km/h -1607.7 km/h 25% 0 mm
08:25 3.5 °C -18.7 °C 791 hPa SSW 9.3 km/h -1607.7 km/h 18% 0 mm
08:40 4.2 °C -18.7 °C 791 hPa South 7.6 km/h -1607.7 km/h 17% 0 mm
08:55 4.9 °C -16.8 °C 791.3 hPa Calm   -1607.7 km/h 19% 0 mm
09:11 4.7 °C -15.8 °C 792 hPa West 10.1 km/h -1607.7 km/h 21% 0 mm
09:26 4.7 °C -15.2 °C 792 hPa WNW 2.7 km/h -1607.7 km/h 22% 0 mm
09:41 5.7 °C -14.4 °C 791.6 hPa SSW 1.8 km/h -1607.7 km/h 22% 0 mm
09:57 5.8 °C -16.8 °C 791.6 hPa NW 7.6 km/h -1607.7 km/h 18% 0 mm
10:12 6.2 °C -16.4 °C 791.6 hPa ESE 5.1 km/h -1607.7 km/h 18% 0 mm
10:27 6.1 °C -15.8 °C 791.6 hPa NNW 2.7 km/h -1607.7 km/h 19% 0 mm
10:42 6.7 °C -13.6 °C 791.3 hPa Calm   -1607.7 km/h 22% 0 mm
10:57 6.1 °C -14.1 °C 791.3 hPa WNW 6.8 km/h -1607.7 km/h 22% 0 mm
11:13 5.6 °C -12.4 °C 791.3 hPa NNW 6 km/h -1607.7 km/h 26% 0 mm
11:28 5.1 °C -11.5 °C 791.3 hPa ENE 6.8 km/h -1607.7 km/h 29% 0 mm
11:43 4.2 °C -8.8 °C 791 hPa NNW 6 km/h -1607.7 km/h 38% 0 mm
11:59 2.9 °C -6.3 °C 791 hPa NNE 11.7 km/h -1607.7 km/h 51% 0 mm
12:14 2.3 °C -3.8 °C 791.3 hPa WNW 6.8 km/h -1607.7 km/h 64% 0 mm
12:29 1.3 °C -2.8 °C 791 hPa NW 11.7 km/h -1607.7 km/h 74% 0 mm
12:44 0.6 °C -2.3 °C 791 hPa NNW 8.5 km/h -1607.7 km/h 81% 0 mm
13:00 0.8 °C -1.8 °C 791.3 hPa NW 7.6 km/h -1607.7 km/h 83% 0 mm
13:16 0.3 °C -1.9 °C 790.6 hPa NW 6 km/h -1607.7 km/h 85% 0 mm
13:31 0.2 °C -1.7 °C 791 hPa Calm   -1607.7 km/h 87% 0 mm
13:46 0.9 °C -0.9 °C 790.6 hPa Calm   -1607.7 km/h 88% 0 mm
14:01 1.2 °C -0.6 °C 790.3 hPa Calm   -1607.7 km/h 88% 0 mm
14:17 1.7 °C 0.1 °C 790.3 hPa Calm   -1607.7 km/h 89% 0 mm
14:32 2.1 °C 0.8 °C 790.3 hPa Calm   -1607.7 km/h 91% 0 mm
14:47 2.6 °C 1.3 °C 790.3 hPa Calm   -1607.7 km/h 91% 0 mm
15:02 2.9 °C 1.9 °C 790.6 hPa Calm   -1607.7 km/h 93% 0 mm
15:18 3.2 °C 2.2 °C 790.6 hPa Calm   -1607.7 km/h 93% 0 mm
15:33 3.4 °C 2.4 °C 790.6 hPa Calm   -1607.7 km/h 93% 0 mm
15:48 3.6 °C 2.7 °C 790.6 hPa Calm   -1607.7 km/h 94% 0 mm
16:03 3.8 °C 2.9 °C 791 hPa Calm   -1607.7 km/h 94% 0 mm
16:18 4 °C 3.1 °C 791 hPa Calm   -1607.7 km/h 94% 0 mm
16:34 3.9 °C 3 °C 791 hPa Calm   -1607.7 km/h 94% 0 mm
16:49 3.7 °C 3 °C 791.3 hPa Calm   -1607.7 km/h 95% 0 mm
17:04 3.4 °C 2.8 °C 791.3 hPa Calm   -1607.7 km/h 96% 0 mm
17:19 3.6 °C 3.1 °C 791 hPa Calm   -1607.7 km/h 96% 0 mm
17:34 3.5 °C 3.1 °C 790.6 hPa Calm   -1607.7 km/h 97% 0 mm
17:50 3.3 °C 2.8 °C 790.6 hPa Calm   -1607.7 km/h 97% 0 mm
18:05 3.5 °C 3.2 °C 791 hPa SSW 5.1 km/h -1607.7 km/h 98% 0 mm
18:20 3.9 °C 3.6 °C 790.6 hPa WNW 6 km/h -1607.7 km/h 98% 0 mm
18:36 4 °C 3.7 °C 791 hPa Calm   -1607.7 km/h 98% 0 mm
18:51 3.9 °C 3.6 °C 791.6 hPa NNW 4.3 km/h -1607.7 km/h 98% 0 mm
19:07 3.8 °C 3.5 °C 791.6 hPa North 1.8 km/h -1607.7 km/h 98% 0 mm
19:22 3.7 °C 3.4 °C 791.6 hPa Calm   -1607.7 km/h 98% 0 mm
19:37 3.3 °C 3 °C 791.6 hPa ESE 4.3 km/h -1607.7 km/h 98% 0 mm
19:52 3.6 °C 3.3 °C 791.3 hPa Calm   -1607.7 km/h 98% 0 mm
20:08 3.7 °C 3.6 °C 791.6 hPa Calm   -1607.7 km/h 99% 0 mm
20:23 3.4 °C 3.2 °C 791.6 hPa Calm   -1607.7 km/h 99% 0 mm
20:38 3.5 °C 3.3 °C 792.3 hPa Calm   -1607.7 km/h 99% 0 mm
20:53 3.7 °C 3.6 °C 792 hPa Calm   -1607.7 km/h 99% 0 mm
21:09 3.7 °C 3.6 °C 791.6 hPa North 1.8 km/h -1607.7 km/h 99% 0 mm
21:24 3.7 °C 3.6 °C 791.6 hPa Calm   -1607.7 km/h 99% 0 mm
21:40 3.6 °C 3.4 °C 792 hPa Calm   -1607.7 km/h 99% 0 mm
21:55 3.6 °C 3.4 °C 792 hPa Calm   -1607.7 km/h 99% 0 mm
22:10 3.7 °C 3.6 °C 791.6 hPa Calm   -1607.7 km/h 99% 0 mm
22:25 4.2 °C 4.1 °C 791.3 hPa Calm   -1607.7 km/h 99% 0 mm
22:40 4.3 °C 4.1 °C 791.6 hPa Calm   -1607.7 km/h 99% 0 mm
22:56 4.3 °C 4.1 °C 791.3 hPa Calm   -1607.7 km/h 99% 0 mm
23:11 4.1 °C 3.9 °C 791.6 hPa Calm   -1607.7 km/h 99% 0 mm
23:26 4 °C 3.8 °C 791.3 hPa Calm   -1607.7 km/h 99% 0 mm
23:41 4 °C 3.8 °C 791.3 hPa Calm   -1607.7 km/h 99% 0 mm
23:56 4 °C 3.8 °C 791.3 hPa Calm   -1607.7 km/h 99% 0 mm
Big Bear CA Weather